Time;durP1;ratioP1;P1;durP2;ratioP2;P2;SDS_P1;SDS_P2;PMS_P1;PMS_P2;Temp;Humidity;BMP_temperature;BMP_pressure;BME280_temperature;BME280_humidity;BME280_pressure;Samples;Min_cycle;Max_cycle;Signal;HPM_P1;HPM_P2
2022/01/21 00:00:49;;;;;;;6.07;2.60;;;;;;;;;;4985393;28;20821;-70
2022/01/21 00:03:16;;;;;;;6.50;2.63;;;;;;;;;;4984085;28;20454;-70
2022/01/21 00:05:43;;;;;;;4.20;2.07;;;;;;;;;;4986883;28;20536;-70
2022/01/21 00:08:12;;;;;;;5.20;2.00;;;;;;;;;;4989888;28;20540;-70
2022/01/21 00:10:39;;;;;;;5.73;2.40;;;;;;;;;;4981383;28;20446;-70
2022/01/21 00:13:16;;;;;;;10.13;2.67;;;;;;;;;;4989834;28;20454;-71
2022/01/21 00:15:43;;;;;;;4.60;2.17;;;;;;;;;;4987120;28;20524;-70
2022/01/21 00:18:11;;;;;;;6.63;2.40;;;;;;;;;;4984994;28;21010;-69
2022/01/21 00:31:39;;;;;;;7.43;1.90;;;;;;;;;;4980293;28;20484;-68
2022/01/21 00:34:06;;;;;;;7.57;2.80;;;;;;;;;;4983052;28;20950;-70
2022/01/21 00:36:33;;;;;;;5.43;2.07;;;;;;;;;;4990168;28;20443;-70
2022/01/21 00:39:02;;;;;;;3.00;2.20;;;;;;;;;;4989551;28;20523;-70
2022/01/21 00:41:34;;;;;;;3.10;1.83;;;;;;;;;;4980568;28;20450;-70
2022/01/21 00:44:01;;;;;;;1.83;1.57;;;;;;;;;;4991493;28;20507;-70
2022/01/21 00:46:28;;;;;;;5.20;2.50;;;;;;;;;;4985466;28;20476;-70
2022/01/21 00:48:55;;;;;;;16.93;2.13;;;;;;;;;;4985930;28;20489;-69
2022/01/21 00:51:22;;;;;;;4.83;2.00;;;;;;;;;;4984112;28;20453;-70
2022/01/21 00:53:49;;;;;;;2.60;1.80;;;;;;;;;;4974740;28;20533;-70
2022/01/21 00:56:18;;;;;;;4.13;2.13;;;;;;;;;;4980756;28;20466;-70
2022/01/21 00:58:45;;;;;;;5.10;2.50;;;;;;;;;;4979071;28;20513;-68
2022/01/21 01:01:12;;;;;;;3.30;1.60;;;;;;;;;;4985863;28;20529;-69
2022/01/21 01:03:40;;;;;;;3.50;1.97;;;;;;;;;;4986306;28;20471;-69
2022/01/21 01:06:07;;;;;;;5.37;2.10;;;;;;;;;;4981260;28;20539;-70
2022/01/21 01:08:34;;;;;;;2.23;1.47;;;;;;;;;;4980133;28;20547;-70
2022/01/21 01:11:17;;;;;;;5.60;1.93;;;;;;;;;;4980040;28;20500;-70
2022/01/21 01:22:00;;;;;;;5.13;2.17;;;;;;;;;;4989330;28;20517;-70
2022/01/21 01:29:58;;;;;;;5.60;1.73;;;;;;;;;;4979377;28;20974;-70
2022/01/21 01:32:27;;;;;;;8.70;2.87;;;;;;;;;;4981990;28;20541;-70
2022/01/21 01:34:55;;;;;;;4.80;1.67;;;;;;;;;;4990307;28;20515;-70
2022/01/21 01:37:35;;;;;;;5.50;1.90;;;;;;;;;;4990595;28;20456;-70
2022/01/21 01:40:15;;;;;;;3.80;2.03;;;;;;;;;;4979837;28;20491;-70
2022/01/21 01:43:07;;;;;;;8.33;2.10;;;;;;;;;;4984910;28;20532;-70
2022/01/21 01:51:06;;;;;;;5.73;1.97;;;;;;;;;;4977823;28;20816;-70
2022/01/21 01:53:34;;;;;;;4.83;1.97;;;;;;;;;;4983809;28;20798;-70
2022/01/21 01:56:02;;;;;;;3.03;1.97;;;;;;;;;;4978974;28;20462;-71
2022/01/21 01:58:30;;;;;;;6.00;2.10;;;;;;;;;;4989463;28;20580;-69
2022/01/21 02:00:58;;;;;;;5.70;1.90;;;;;;;;;;4985087;28;21280;-70
2022/01/21 02:03:25;;;;;;;7.43;2.40;;;;;;;;;;4981754;28;20772;-69
2022/01/21 02:05:52;;;;;;;9.23;3.13;;;;;;;;;;4986462;28;20541;-70
2022/01/21 02:08:20;;;;;;;6.90;2.40;;;;;;;;;;4980184;28;20450;-69
2022/01/21 02:10:47;;;;;;;6.10;2.43;;;;;;;;;;4986303;28;20557;-70
2022/01/21 02:13:21;;;;;;;5.23;2.03;;;;;;;;;;4988056;28;20449;-69
2022/01/21 02:15:59;;;;;;;4.43;2.10;;;;;;;;;;4984779;28;20453;-69
2022/01/21 02:21:38;;;;;;;4.13;2.40;;;;;;;;;;4986855;28;20795;-69
2022/01/21 02:24:11;;;;;;;7.67;3.53;;;;;;;;;;4981111;28;20892;-70
2022/01/21 02:26:38;;;;;;;6.03;1.90;;;;;;;;;;4979587;28;20501;-69
2022/01/21 02:29:06;;;;;;;4.57;1.53;;;;;;;;;;4983054;28;20457;-70
2022/01/21 02:31:34;;;;;;;3.03;2.17;;;;;;;;;;4982399;28;20445;-69
2022/01/21 02:34:02;;;;;;;5.43;2.40;;;;;;;;;;4982082;28;20454;-69
2022/01/21 02:36:30;;;;;;;5.87;2.00;;;;;;;;;;4989693;28;20461;-70
2022/01/21 02:38:57;;;;;;;4.13;2.00;;;;;;;;;;4980045;28;20952;-70
2022/01/21 02:41:25;;;;;;;2.43;1.67;;;;;;;;;;4985496;28;20968;-69
2022/01/21 02:43:52;;;;;;;5.93;2.17;;;;;;;;;;4977136;28;20454;-69
2022/01/21 02:46:21;;;;;;;6.10;2.40;;;;;;;;;;4984234;28;20535;-69
2022/01/21 02:48:49;;;;;;;4.33;2.10;;;;;;;;;;4988485;28;20544;-69
2022/01/21 02:51:16;;;;;;;8.47;2.47;;;;;;;;;;4979016;28;20457;-69
2022/01/21 02:56:29;;;;;;;2.83;2.37;;;;;;;;;;4975313;28;20453;-69
2022/01/21 02:58:57;;;;;;;10.67;2.87;;;;;;;;;;4977931;28;20482;-70
2022/01/21 03:01:24;;;;;;;4.53;1.80;;;;;;;;;;4990726;28;20544;-70
2022/01/21 03:03:51;;;;;;;2.40;2.10;;;;;;;;;;4985771;28;20540;-69
2022/01/21 03:06:20;;;;;;;9.90;3.40;;;;;;;;;;4988467;28;20953;-69
2022/01/21 03:08:49;;;;;;;4.07;3.17;;;;;;;;;;4978700;28;20455;-69
2022/01/21 03:11:16;;;;;;;9.83;2.63;;;;;;;;;;4981207;28;21038;-69
2022/01/21 03:13:44;;;;;;;4.20;1.67;;;;;;;;;;4996592;28;20457;-69
2022/01/21 03:16:12;;;;;;;7.20;2.10;;;;;;;;;;4986093;28;20464;-69
2022/01/21 03:18:39;;;;;;;3.63;2.60;;;;;;;;;;4982100;28;20847;-67
2022/01/21 03:21:09;;;;;;;10.20;2.37;;;;;;;;;;4982864;28;20801;-69
2022/01/21 03:23:37;;;;;;;5.53;2.00;;;;;;;;;;4981786;28;20453;-70
2022/01/21 03:26:05;;;;;;;3.40;2.00;;;;;;;;;;4980060;28;20941;-69
2022/01/21 03:28:33;;;;;;;3.30;1.83;;;;;;;;;;4984980;28;20557;-69
2022/01/21 03:31:00;;;;;;;6.70;2.00;;;;;;;;;;4982093;28;20465;-69
2022/01/21 03:33:27;;;;;;;8.60;2.20;;;;;;;;;;4977950;28;20457;-69
2022/01/21 03:35:54;;;;;;;10.87;2.10;;;;;;;;;;4986882;28;20456;-69
2022/01/21 03:38:24;;;;;;;6.50;2.27;;;;;;;;;;4983293;28;20486;-69
2022/01/21 03:40:52;;;;;;;6.40;2.30;;;;;;;;;;4984041;28;20456;-69
2022/01/21 03:43:21;;;;;;;9.23;2.07;;;;;;;;;;4974878;28;20446;-69
2022/01/21 03:45:48;;;;;;;5.23;2.13;;;;;;;;;;4984396;28;20460;-69
2022/01/21 03:48:16;;;;;;;3.07;2.17;;;;;;;;;;4979118;28;20544;-69
2022/01/21 03:50:43;;;;;;;4.83;1.97;;;;;;;;;;4977716;28;20485;-69
2022/01/21 03:53:10;;;;;;;10.73;2.90;;;;;;;;;;4981315;28;20473;-69
2022/01/21 03:55:38;;;;;;;4.70;3.47;;;;;;;;;;4984279;28;20460;-68
2022/01/21 03:58:06;;;;;;;4.03;2.30;;;;;;;;;;4981081;28;20449;-70
2022/01/21 04:00:36;;;;;;;6.00;2.70;;;;;;;;;;4987110;28;20449;-70
2022/01/21 04:03:04;;;;;;;5.80;2.63;;;;;;;;;;4983221;28;20481;-70
2022/01/21 04:05:32;;;;;;;5.37;2.30;;;;;;;;;;4980101;28;20448;-69
2022/01/21 04:07:59;;;;;;;6.70;2.57;;;;;;;;;;4980382;28;20485;-69
2022/01/21 04:10:27;;;;;;;5.07;2.20;;;;;;;;;;4978665;28;20453;-69
2022/01/21 04:12:54;;;;;;;6.40;2.83;;;;;;;;;;4982888;28;20956;-69
2022/01/21 04:15:22;;;;;;;5.43;2.97;;;;;;;;;;4989663;28;20951;-70
2022/01/21 04:17:51;;;;;;;5.33;2.40;;;;;;;;;;4984356;28;20457;-70
2022/01/21 04:20:18;;;;;;;5.30;2.30;;;;;;;;;;4984455;28;20519;-69
2022/01/21 04:22:45;;;;;;;10.93;2.67;;;;;;;;;;4984935;28;20532;-70
2022/01/21 04:25:12;;;;;;;8.57;2.40;;;;;;;;;;4980489;28;20468;-70
2022/01/21 04:27:40;;;;;;;6.70;2.60;;;;;;;;;;4981843;28;20461;-68
2022/01/21 04:30:09;;;;;;;5.83;3.20;;;;;;;;;;4987814;28;20454;-69
2022/01/21 04:32:37;;;;;;;7.00;2.90;;;;;;;;;;4986236;28;20882;-70
2022/01/21 04:35:06;;;;;;;5.97;3.00;;;;;;;;;;4979680;28;20454;-70
2022/01/21 04:37:33;;;;;;;7.00;2.73;;;;;;;;;;4987571;28;20464;-70
2022/01/21 04:40:07;;;;;;;6.97;2.47;;;;;;;;;;4980015;28;20490;-69
2022/01/21 04:48:04;;;;;;;7.93;2.87;;;;;;;;;;4980184;28;20436;-69
2022/01/21 04:50:40;;;;;;;4.20;2.30;;;;;;;;;;4981999;28;20458;-69
2022/01/21 04:53:08;;;;;;;4.97;3.03;;;;;;;;;;4985605;28;20449;-70
2022/01/21 04:55:35;;;;;;;4.80;2.27;;;;;;;;;;4986852;28;20492;-69
2022/01/21 04:58:03;;;;;;;6.60;2.30;;;;;;;;;;4977575;28;20832;-70
2022/01/21 05:00:30;;;;;;;6.40;2.90;;;;;;;;;;4986619;28;20544;-69
2022/01/21 05:02:57;;;;;;;4.90;2.03;;;;;;;;;;4981354;28;20481;-69
2022/01/21 05:05:24;;;;;;;6.13;3.07;;;;;;;;;;4979668;28;20969;-69
2022/01/21 05:07:54;;;;;;;3.53;2.80;;;;;;;;;;4987968;28;20454;-69
2022/01/21 05:10:23;;;;;;;3.90;2.30;;;;;;;;;;4979490;28;20975;-69
2022/01/21 05:12:50;;;;;;;12.20;2.87;;;;;;;;;;4994156;28;20855;-69
2022/01/21 05:15:25;;;;;;;9.63;2.77;;;;;;;;;;4993085;28;20464;-69
2022/01/21 05:17:52;;;;;;;7.70;2.67;;;;;;;;;;4982957;28;20818;-70
2022/01/21 05:20:19;;;;;;;8.33;2.40;;;;;;;;;;4976662;28;20990;-73
2022/01/21 05:22:47;;;;;;;5.70;2.60;;;;;;;;;;4976787;28;20454;-71
2022/01/21 05:25:19;;;;;;;9.43;2.63;;;;;;;;;;4989011;28;20548;-71
2022/01/21 05:27:48;;;;;;;9.17;3.20;;;;;;;;;;4980653;28;20839;-70
2022/01/21 05:30:15;;;;;;;9.13;2.60;;;;;;;;;;4986254;28;20454;-71
2022/01/21 05:32:42;;;;;;;10.57;2.53;;;;;;;;;;4984424;28;20551;-70
2022/01/21 05:35:09;;;;;;;5.50;2.80;;;;;;;;;;4980650;28;20535;-71
2022/01/21 05:37:37;;;;;;;12.13;4.20;;;;;;;;;;4988590;28;20449;-70
2022/01/21 05:40:05;;;;;;;3.63;2.53;;;;;;;;;;4985918;28;20525;-70
2022/01/21 05:42:35;;;;;;;8.40;2.53;;;;;;;;;;4989569;28;20527;-72
2022/01/21 05:47:47;;;;;;;8.83;3.80;;;;;;;;;;4985064;28;20425;-71
2022/01/21 05:50:15;;;;;;;9.80;3.40;;;;;;;;;;4983265;28;20488;-70
2022/01/21 05:52:45;;;;;;;11.00;2.97;;;;;;;;;;4978418;28;20449;-70
2022/01/21 05:55:12;;;;;;;7.83;3.03;;;;;;;;;;4981349;28;20461;-70
2022/01/21 05:57:41;;;;;;;4.47;2.93;;;;;;;;;;4985280;28;20939;-70
2022/01/21 06:00:09;;;;;;;13.30;3.20;;;;;;;;;;4976505;28;20488;-69
2022/01/21 06:02:37;;;;;;;5.60;2.70;;;;;;;;;;4981423;28;20536;-70
2022/01/21 06:05:04;;;;;;;7.20;2.83;;;;;;;;;;4979716;28;21025;-71
2022/01/21 06:07:31;;;;;;;7.27;3.00;;;;;;;;;;4986098;28;20537;-71
2022/01/21 06:09:59;;;;;;;5.07;2.50;;;;;;;;;;4984698;28;20531;-71
2022/01/21 06:12:26;;;;;;;15.43;2.50;;;;;;;;;;4974855;28;20445;-69
2022/01/21 06:14:54;;;;;;;4.63;2.90;;;;;;;;;;4980628;28;20450;-69
2022/01/21 06:17:22;;;;;;;5.83;2.90;;;;;;;;;;4984649;28;20833;-68
2022/01/21 06:19:50;;;;;;;7.37;3.67;;;;;;;;;;4984534;28;20576;-67
2022/01/21 06:22:17;;;;;;;6.13;3.10;;;;;;;;;;4979949;28;20465;-67
2022/01/21 06:24:44;;;;;;;4.60;3.60;;;;;;;;;;4978299;28;20454;-67
2022/01/21 06:27:12;;;;;;;8.50;2.53;;;;;;;;;;4984830;28;20580;-68
2022/01/21 06:29:39;;;;;;;9.67;2.90;;;;;;;;;;4984748;28;20875;-68
2022/01/21 06:32:08;;;;;;;4.40;2.80;;;;;;;;;;4980317;28;20536;-68
2022/01/21 06:34:35;;;;;;;6.50;2.73;;;;;;;;;;4979293;28;20460;-68
2022/01/21 06:37:02;;;;;;;4.33;2.60;;;;;;;;;;4991078;28;20460;-67
2022/01/21 06:39:29;;;;;;;11.80;3.20;;;;;;;;;;4978430;28;20492;-68
2022/01/21 06:41:57;;;;;;;4.50;2.67;;;;;;;;;;4982320;28;20458;-68
2022/01/21 06:44:24;;;;;;;4.20;2.60;;;;;;;;;;4991319;28;20471;-68
2022/01/21 06:46:51;;;;;;;5.13;2.97;;;;;;;;;;4980211;28;20496;-68
2022/01/21 06:49:19;;;;;;;4.87;2.80;;;;;;;;;;4978801;28;20552;-68
2022/01/21 06:51:47;;;;;;;7.00;3.07;;;;;;;;;;4981436;28;20450;-68
2022/01/21 06:54:14;;;;;;;9.80;2.83;;;;;;;;;;4985143;28;20450;-68
2022/01/21 06:56:41;;;;;;;5.10;3.20;;;;;;;;;;4981510;28;20468;-68
2022/01/21 06:59:08;;;;;;;6.63;3.10;;;;;;;;;;4978498;28;20532;-68
2022/01/21 07:01:35;;;;;;;9.23;3.40;;;;;;;;;;4981121;28;20890;-67
2022/01/21 07:04:03;;;;;;;2.60;2.37;;;;;;;;;;4984800;28;20508;-68
2022/01/21 07:06:31;;;;;;;5.47;2.60;;;;;;;;;;4982258;28;20471;-68
2022/01/21 07:08:58;;;;;;;5.23;3.20;;;;;;;;;;4977968;28;20448;-68
2022/01/21 07:11:25;;;;;;;5.50;3.00;;;;;;;;;;4981360;28;20447;-68
2022/01/21 07:13:53;;;;;;;9.33;3.67;;;;;;;;;;5000463;28;20453;-68
2022/01/21 07:16:20;;;;;;;6.10;2.97;;;;;;;;;;4981755;28;20540;-68
2022/01/21 07:18:47;;;;;;;4.20;2.97;;;;;;;;;;4989735;28;20482;-68
2022/01/21 07:21:14;;;;;;;4.80;3.70;;;;;;;;;;4993514;28;20588;-68
2022/01/21 07:23:43;;;;;;;6.37;3.67;;;;;;;;;;4981420;28;20461;-67
2022/01/21 07:26:12;;;;;;;10.60;3.80;;;;;;;;;;4983650;28;21056;-68
2022/01/21 07:28:39;;;;;;;4.90;3.53;;;;;;;;;;4985006;28;20858;-67
2022/01/21 07:31:06;;;;;;;15.63;6.30;;;;;;;;;;4984454;28;20520;-69
2022/01/21 07:33:34;;;;;;;9.43;3.80;;;;;;;;;;4978480;28;20452;-69
2022/01/21 07:36:01;;;;;;;6.57;3.17;;;;;;;;;;4993896;28;20480;-68
2022/01/21 07:38:28;;;;;;;12.50;3.73;;;;;;;;;;4988328;28;20487;-68
2022/01/21 07:40:57;;;;;;;7.60;3.67;;;;;;;;;;4987513;28;20580;-68
2022/01/21 07:43:24;;;;;;;6.37;3.60;;;;;;;;;;4987810;28;20481;-68
2022/01/21 07:45:51;;;;;;;13.20;3.90;;;;;;;;;;4979277;28;20446;-68
2022/01/21 07:48:18;;;;;;;3.57;2.70;;;;;;;;;;4983694;28;20452;-68
2022/01/21 07:50:45;;;;;;;8.90;3.93;;;;;;;;;;4981340;28;20458;-68
2022/01/21 07:53:12;;;;;;;6.70;4.50;;;;;;;;;;4986596;28;20938;-68
2022/01/21 07:55:40;;;;;;;3.70;2.97;;;;;;;;;;4987247;28;20967;-68
2022/01/21 07:58:08;;;;;;;9.13;4.13;;;;;;;;;;4984233;28;20455;-68
2022/01/21 08:00:35;;;;;;;6.40;4.23;;;;;;;;;;4981795;28;20576;-68
2022/01/21 08:03:03;;;;;;;6.93;3.53;;;;;;;;;;4985465;28;20552;-68
2022/01/21 08:05:33;;;;;;;10.40;4.30;;;;;;;;;;4987407;28;20456;-68
2022/01/21 08:08:01;;;;;;;14.47;4.93;;;;;;;;;;4984458;28;20965;-68
2022/01/21 08:10:28;;;;;;;6.87;4.70;;;;;;;;;;4981254;28;20937;-68
2022/01/21 08:12:55;;;;;;;6.40;3.67;;;;;;;;;;4996053;28;20546;-68
2022/01/21 08:15:24;;;;;;;6.80;3.30;;;;;;;;;;4992126;28;20485;-69
2022/01/21 08:17:51;;;;;;;7.47;4.03;;;;;;;;;;4985061;28;20496;-68
2022/01/21 08:20:18;;;;;;;9.90;3.90;;;;;;;;;;4981061;28;20613;-68
2022/01/21 08:22:46;;;;;;;6.17;4.13;;;;;;;;;;4982305;28;20452;-68
2022/01/21 08:25:13;;;;;;;6.83;3.30;;;;;;;;;;4991502;28;20551;-68
2022/01/21 08:27:40;;;;;;;9.77;3.47;;;;;;;;;;4981870;28;20833;-68
2022/01/21 08:30:08;;;;;;;4.60;3.50;;;;;;;;;;4987580;28;20969;-68
2022/01/21 08:32:37;;;;;;;9.17;4.33;;;;;;;;;;4986635;28;20524;-68
2022/01/21 08:35:05;;;;;;;11.43;3.57;;;;;;;;;;4980655;28;20441;-68
2022/01/21 08:37:32;;;;;;;9.83;3.93;;;;;;;;;;4994477;28;20452;-68
2022/01/21 08:40:00;;;;;;;13.00;3.63;;;;;;;;;;4980147;28;20575;-68
2022/01/21 08:42:27;;;;;;;9.13;3.30;;;;;;;;;;4986262;28;20458;-68
2022/01/21 08:44:54;;;;;;;11.83;4.13;;;;;;;;;;4986470;28;20851;-68
2022/01/21 08:47:22;;;;;;;9.33;3.70;;;;;;;;;;4986967;28;20512;-68
2022/01/21 08:49:51;;;;;;;8.00;5.27;;;;;;;;;;4986369;28;20795;-67
2022/01/21 08:52:21;;;;;;;9.23;3.90;;;;;;;;;;4987339;28;20540;-67
2022/01/21 08:54:48;;;;;;;7.63;4.43;;;;;;;;;;4980677;28;20457;-67
2022/01/21 08:57:15;;;;;;;9.97;3.60;;;;;;;;;;4980797;28;20540;-67
2022/01/21 08:59:42;;;;;;;8.37;4.03;;;;;;;;;;4985033;28;20461;-67
2022/01/21 09:02:09;;;;;;;8.03;3.90;;;;;;;;;;4987033;28;20547;-67
2022/01/21 09:04:37;;;;;;;9.07;4.13;;;;;;;;;;4982126;28;20504;-70
2022/01/21 09:07:06;;;;;;;4.23;3.80;;;;;;;;;;4979681;28;20537;-67
2022/01/21 09:09:33;;;;;;;7.97;4.10;;;;;;;;;;4984672;28;20505;-67
2022/01/21 09:12:00;;;;;;;6.60;4.17;;;;;;;;;;4986185;28;20492;-67
2022/01/21 09:14:28;;;;;;;10.77;4.70;;;;;;;;;;5002062;28;20937;-68
2022/01/21 09:16:56;;;;;;;12.93;4.30;;;;;;;;;;4979798;28;20484;-67
2022/01/21 09:19:23;;;;;;;9.30;4.70;;;;;;;;;;4983915;28;20960;-69
2022/01/21 09:21:52;;;;;;;6.77;4.57;;;;;;;;;;4986044;28;21021;-67
2022/01/21 09:24:20;;;;;;;7.67;4.50;;;;;;;;;;4983671;28;20472;-67
2022/01/21 09:26:49;;;;;;;5.07;3.50;;;;;;;;;;4979068;28;20497;-67
2022/01/21 09:29:16;;;;;;;9.83;4.07;;;;;;;;;;4982897;28;20450;-67
2022/01/21 09:31:44;;;;;;;7.63;3.97;;;;;;;;;;4985554;28;20450;-67
2022/01/21 09:34:11;;;;;;;11.97;4.70;;;;;;;;;;4984244;28;20445;-67
2022/01/21 09:36:38;;;;;;;6.90;3.70;;;;;;;;;;4992081;28;20858;-67
2022/01/21 09:39:06;;;;;;;11.30;4.20;;;;;;;;;;4981139;28;20450;-68
2022/01/21 09:41:35;;;;;;;8.90;4.00;;;;;;;;;;4986147;28;20525;-67
2022/01/21 09:44:04;;;;;;;11.93;4.50;;;;;;;;;;4990723;28;20469;-67
2022/01/21 09:46:35;;;;;;;11.73;4.43;;;;;;;;;;4985213;28;20508;-67
2022/01/21 09:49:25;;;;;;;15.90;4.33;;;;;;;;;;4985223;28;20444;-67
2022/01/21 09:51:53;;;;;;;9.83;4.10;;;;;;;;;;4982912;28;20449;-67
2022/01/21 09:54:22;;;;;;;11.80;4.60;;;;;;;;;;4979160;28;20965;-67
2022/01/21 09:56:51;;;;;;;12.23;3.97;;;;;;;;;;4979965;28;20931;-67
2022/01/21 09:59:20;;;;;;;6.63;4.20;;;;;;;;;;4986532;28;20846;-68
2022/01/21 10:01:49;;;;;;;8.27;3.93;;;;;;;;;;4985968;28;21047;-68
2022/01/21 10:04:17;;;;;;;9.90;4.60;;;;;;;;;;4992870;28;20540;-68
2022/01/21 10:06:46;;;;;;;8.40;4.20;;;;;;;;;;4990236;28;20545;-68
2022/01/21 10:09:13;;;;;;;8.80;3.90;;;;;;;;;;4994799;28;20532;-68
2022/01/21 10:11:46;;;;;;;5.70;4.30;;;;;;;;;;4991729;28;20479;-67
2022/01/21 10:14:14;;;;;;;6.63;3.80;;;;;;;;;;4992234;28;20488;-68
2022/01/21 10:16:43;;;;;;;12.43;3.47;;;;;;;;;;4979223;28;20931;-67
2022/01/21 10:19:11;;;;;;;11.30;3.70;;;;;;;;;;4984465;28;20464;-68
2022/01/21 10:21:39;;;;;;;8.03;4.23;;;;;;;;;;4985154;28;20520;-67
2022/01/21 10:24:08;;;;;;;10.90;4.07;;;;;;;;;;4980988;28;20451;-67
2022/01/21 10:26:35;;;;;;;6.73;3.57;;;;;;;;;;4978292;28;20544;-67
2022/01/21 10:29:04;;;;;;;6.63;3.50;;;;;;;;;;4983260;28;20529;-67
2022/01/21 10:31:32;;;;;;;8.23;3.60;;;;;;;;;;4985518;28;20453;-68
2022/01/21 10:34:04;;;;;;;7.30;3.43;;;;;;;;;;4980671;28;20468;-67
2022/01/21 10:36:34;;;;;;;7.43;3.53;;;;;;;;;;4991228;28;20528;-67
2022/01/21 10:39:09;;;;;;;9.53;4.03;;;;;;;;;;4980241;28;20454;-67
2022/01/21 10:41:36;;;;;;;5.73;3.50;;;;;;;;;;4985885;28;20847;-68
2022/01/21 10:44:05;;;;;;;6.50;4.07;;;;;;;;;;4990989;28;20553;-68
2022/01/21 10:46:34;;;;;;;10.47;4.23;;;;;;;;;;4978355;28;20535;-67
2022/01/21 10:49:02;;;;;;;16.63;3.40;;;;;;;;;;4977847;28;21033;-67
2022/01/21 10:51:30;;;;;;;7.93;5.67;;;;;;;;;;4984699;28;20453;-67
2022/01/21 10:53:58;;;;;;;6.50;3.83;;;;;;;;;;4984954;28;20659;-67
2022/01/21 10:56:27;;;;;;;7.23;2.90;;;;;;;;;;4979742;28;20481;-68
2022/01/21 10:58:55;;;;;;;6.03;3.47;;;;;;;;;;4978028;28;21010;-68
2022/01/21 11:01:25;;;;;;;11.17;4.20;;;;;;;;;;4983214;28;20481;-68
2022/01/21 11:04:01;;;;;;;16.63;3.30;;;;;;;;;;4984472;28;20475;-69
2022/01/21 11:06:36;;;;;;;7.60;3.20;;;;;;;;;;4981954;28;20437;-68
2022/01/21 11:09:20;;;;;;;9.20;4.50;;;;;;;;;;4981398;28;20451;-67
2022/01/21 11:11:47;;;;;;;5.10;3.40;;;;;;;;;;4981881;28;20520;-68
2022/01/21 11:14:15;;;;;;;9.30;4.10;;;;;;;;;;5005006;28;20823;-67
2022/01/21 11:16:45;;;;;;;7.27;3.10;;;;;;;;;;4981118;28;20536;-67
2022/01/21 11:19:16;;;;;;;9.23;5.20;;;;;;;;;;4987827;28;20449;-67
2022/01/21 11:21:48;;;;;;;6.23;2.90;;;;;;;;;;4988736;28;20484;-68
2022/01/21 11:24:16;;;;;;;6.93;2.83;;;;;;;;;;4985149;28;20539;-67
2022/01/21 11:26:44;;;;;;;9.50;3.60;;;;;;;;;;4981792;28;21032;-67
2022/01/21 11:29:11;;;;;;;5.70;4.10;;;;;;;;;;4985278;28;20464;-68
2022/01/21 11:31:39;;;;;;;4.70;2.43;;;;;;;;;;4987692;28;20464;-70
2022/01/21 11:34:06;;;;;;;5.73;2.60;;;;;;;;;;4985985;28;20531;-68
2022/01/21 11:36:34;;;;;;;6.53;3.60;;;;;;;;;;4994514;28;20528;-68
2022/01/21 11:39:02;;;;;;;6.70;3.27;;;;;;;;;;4983280;28;20485;-67
2022/01/21 11:41:29;;;;;;;5.13;2.90;;;;;;;;;;4988364;28;20569;-69
2022/01/21 11:44:02;;;;;;;8.23;2.30;;;;;;;;;;4992350;28;20870;-69
2022/01/21 11:46:59;;;;;;;8.83;2.50;;;;;;;;;;4981243;28;20433;-69
2022/01/21 11:49:26;;;;;;;3.60;2.20;;;;;;;;;;4981371;28;20540;-69
2022/01/21 11:52:08;;;;;;;7.80;2.93;;;;;;;;;;4984173;28;20533;-68
2022/01/21 11:54:37;;;;;;;7.10;2.40;;;;;;;;;;4988251;28;20446;-69
2022/01/21 11:57:06;;;;;;;3.80;2.50;;;;;;;;;;4987441;28;20450;-68
2022/01/21 11:59:40;;;;;;;6.03;2.50;;;;;;;;;;4987764;28;20454;-69
2022/01/21 12:02:18;;;;;;;4.90;2.50;;;;;;;;;;4987638;28;20476;-69
2022/01/21 12:04:46;;;;;;;4.57;2.27;;;;;;;;;;4983522;28;20971;-68
2022/01/21 12:07:44;;;;;;;5.53;2.30;;;;;;;;;;4981525;28;20448;-69
2022/01/21 12:10:13;;;;;;;8.13;3.00;;;;;;;;;;4902923;29;20468;-69
2022/01/21 12:13:09;;;;;;;3.60;2.30;;;;;;;;;;4977610;28;20456;-68
2022/01/21 12:15:57;;;;;;;7.70;1.80;;;;;;;;;;4955701;28;20523;-69
2022/01/21 12:18:39;;;;;;;4.30;2.10;;;;;;;;;;4987707;28;20460;-68
2022/01/21 12:21:28;;;;;;;2.67;1.80;;;;;;;;;;4984654;28;20473;-68
2022/01/21 12:23:55;;;;;;;8.67;3.30;;;;;;;;;;4981407;28;20488;-69
2022/01/21 12:26:24;;;;;;;6.43;2.10;;;;;;;;;;4980579;28;20482;-68
2022/01/21 12:29:06;;;;;;;17.60;3.57;;;;;;;;;;4985559;28;20461;-68
2022/01/21 12:31:52;;;;;;;9.40;1.90;;;;;;;;;;4987251;28;20540;-68
2022/01/21 12:34:19;;;;;;;7.70;2.20;;;;;;;;;;4986795;28;20910;-68
2022/01/21 12:36:49;;;;;;;4.20;3.00;;;;;;;;;;4986409;28;20493;-68
2022/01/21 12:39:31;;;;;;;4.60;2.00;;;;;;;;;;4974419;28;20446;-70
2022/01/21 12:42:20;;;;;;;2.93;1.90;;;;;;;;;;4973518;28;21041;-69
2022/01/21 12:44:48;;;;;;;4.13;2.30;;;;;;;;;;4986485;28;20456;-68
2022/01/21 12:47:30;;;;;;;12.60;2.70;;;;;;;;;;4989212;28;20452;-69
2022/01/21 12:49:59;;;;;;;4.43;2.67;;;;;;;;;;4990581;28;20552;-72
2022/01/21 12:52:49;;;;;;;5.60;2.10;;;;;;;;;;4996302;28;20449;-70
2022/01/21 12:58:12;;;;;;;3.87;1.83;;;;;;;;;;4985269;28;20429;-69
2022/01/21 13:00:41;;;;;;;2.50;2.10;;;;;;;;;;4986695;28;20457;-69
2022/01/21 13:03:15;;;;;;;4.60;2.30;;;;;;;;;;4983144;28;20497;-69
2022/01/21 13:05:44;;;;;;;11.73;3.00;;;;;;;;;;4979473;28;20479;-69
2022/01/21 13:08:16;;;;;;;5.70;2.87;;;;;;;;;;4993553;28;20477;-69
2022/01/21 13:10:44;;;;;;;4.53;2.40;;;;;;;;;;4979994;28;20449;-69
2022/01/21 13:13:17;;;;;;;4.67;3.13;;;;;;;;;;4998311;28;20542;-69
2022/01/21 13:15:47;;;;;;;6.63;2.00;;;;;;;;;;4986222;28;20500;-69
2022/01/21 13:18:15;;;;;;;4.03;2.47;;;;;;;;;;4986728;28;20540;-69
2022/01/21 13:20:43;;;;;;;3.50;1.67;;;;;;;;;;4979750;28;20886;-68
2022/01/21 13:23:12;;;;;;;7.33;2.67;;;;;;;;;;4979317;28;20521;-69
2022/01/21 13:25:45;;;;;;;7.20;2.00;;;;;;;;;;4984583;28;20564;-68
2022/01/21 13:28:12;;;;;;;3.93;1.73;;;;;;;;;;4987129;28;20441;-69
2022/01/21 13:30:39;;;;;;;4.10;2.00;;;;;;;;;;4981613;28;20456;-68
2022/01/21 13:33:09;;;;;;;8.50;2.57;;;;;;;;;;4978637;28;20492;-69
2022/01/21 13:35:37;;;;;;;5.80;2.97;;;;;;;;;;4992900;28;20460;-69
2022/01/21 13:38:06;;;;;;;3.00;1.97;;;;;;;;;;4989106;28;20462;-68
2022/01/21 13:40:36;;;;;;;5.70;2.27;;;;;;;;;;4984251;28;20463;-68
2022/01/21 13:43:07;;;;;;;5.40;2.40;;;;;;;;;;4995035;28;20495;-68
2022/01/21 13:45:35;;;;;;;5.67;1.80;;;;;;;;;;4980376;28;20461;-68
2022/01/21 13:48:04;;;;;;;4.63;2.27;;;;;;;;;;4985935;28;20484;-68
2022/01/21 13:50:33;;;;;;;3.60;1.70;;;;;;;;;;4985807;28;20463;-68
2022/01/21 13:53:13;;;;;;;5.37;2.47;;;;;;;;;;5129361;27;20520;-67
2022/01/21 13:55:43;;;;;;;4.80;1.90;;;;;;;;;;5107623;28;20447;-67
2022/01/21 13:58:11;;;;;;;5.40;2.03;;;;;;;;;;5108685;28;20542;-67
2022/01/21 14:00:39;;;;;;;4.20;1.30;;;;;;;;;;5108365;28;20546;-67
2022/01/21 14:03:18;;;;;;;6.47;2.13;;;;;;;;;;5108483;28;20531;-68
2022/01/21 14:05:49;;;;;;;4.50;1.80;;;;;;;;;;5107336;28;20440;-67
2022/01/21 14:08:19;;;;;;;2.00;1.50;;;;;;;;;;5108445;28;20535;-67
2022/01/21 14:10:46;;;;;;;5.60;2.23;;;;;;;;;;5108259;28;20516;-67
2022/01/21 14:13:13;;;;;;;5.30;1.80;;;;;;;;;;5108606;28;20444;-67
2022/01/21 14:15:41;;;;;;;3.30;1.50;;;;;;;;;;5107206;28;20440;-67
2022/01/21 14:18:08;;;;;;;5.47;1.77;;;;;;;;;;5108615;28;20475;-67
2022/01/21 14:20:36;;;;;;;4.60;1.57;;;;;;;;;;5108397;28;20471;-67
2022/01/21 14:23:04;;;;;;;5.60;1.60;;;;;;;;;;5108472;28;20772;-67
2022/01/21 14:25:33;;;;;;;4.23;2.27;;;;;;;;;;5094458;28;20931;-67
2022/01/21 14:28:00;;;;;;;5.57;1.87;;;;;;;;;;5107808;28;20455;-67
2022/01/21 14:30:27;;;;;;;6.87;1.77;;;;;;;;;;5108248;28;20494;-67
2022/01/21 14:32:56;;;;;;;3.60;1.70;;;;;;;;;;5107160;28;20572;-67
2022/01/21 14:35:29;;;;;;;4.23;1.80;;;;;;;;;;5107467;28;20493;-67
2022/01/21 14:38:00;;;;;;;3.40;1.67;;;;;;;;;;5107442;28;20447;-67
2022/01/21 14:40:28;;;;;;;2.70;1.60;;;;;;;;;;5108197;28;20530;-67
2022/01/21 14:43:04;;;;;;;4.40;2.10;;;;;;;;;;5106836;28;20530;-67
2022/01/21 14:45:31;;;;;;;2.20;1.90;;;;;;;;;;5107522;28;20479;-67
2022/01/21 14:47:58;;;;;;;5.00;1.77;;;;;;;;;;5106646;28;21079;-68
2022/01/21 14:50:27;;;;;;;8.53;2.20;;;;;;;;;;5107820;28;20447;-67
2022/01/21 14:52:56;;;;;;;7.47;2.40;;;;;;;;;;5107358;28;20498;-67
2022/01/21 14:55:26;;;;;;;3.90;1.60;;;;;;;;;;5107526;28;20440;-68
2022/01/21 14:57:54;;;;;;;4.70;1.60;;;;;;;;;;5107044;28;20505;-67
2022/01/21 15:00:27;;;;;;;2.63;1.83;;;;;;;;;;5107316;28;20478;-68
2022/01/21 15:03:05;;;;;;;4.47;1.27;;;;;;;;;;5102418;28;20484;-67
2022/01/21 15:05:32;;;;;;;3.53;1.43;;;;;;;;;;5093474;28;21232;-67
2022/01/21 15:08:00;;;;;;;8.40;1.90;;;;;;;;;;5093331;28;20535;-67
2022/01/21 15:10:35;;;;;;;2.80;1.83;;;;;;;;;;5094027;28;20843;-69
2022/01/21 15:16:07;;;;;;;2.83;1.87;;;;;;;;;;5081131;28;20419;-67
2022/01/21 15:18:34;;;;;;;7.10;2.30;;;;;;;;;;5093717;28;20440;-67
2022/01/21 15:21:01;;;;;;;3.83;2.27;;;;;;;;;;5092619;28;20940;-67
2022/01/21 15:23:29;;;;;;;5.03;1.73;;;;;;;;;;5093504;28;20487;-67
2022/01/21 15:25:56;;;;;;;4.23;1.50;;;;;;;;;;5092333;28;20448;-67
2022/01/21 15:28:23;;;;;;;3.80;1.67;;;;;;;;;;5093138;28;20459;-68
2022/01/21 15:30:50;;;;;;;3.97;1.97;;;;;;;;;;5092239;28;20867;-67
2022/01/21 15:33:19;;;;;;;4.70;2.50;;;;;;;;;;5092806;28;20519;-68
2022/01/21 15:35:46;;;;;;;3.47;1.80;;;;;;;;;;5092811;28;20805;-67
2022/01/21 15:38:13;;;;;;;4.93;1.80;;;;;;;;;;5093106;28;20448;-67
2022/01/21 15:40:41;;;;;;;4.67;1.90;;;;;;;;;;5092672;28;20456;-67
2022/01/21 15:43:08;;;;;;;2.67;2.00;;;;;;;;;;5093432;28;20895;-67